createdAt,value
2019-01-14T00:00:46.794Z,24.17
2019-01-14T00:03:17.520Z,16.20
2019-01-14T00:05:47.889Z,19.00
2019-01-14T00:08:18.579Z,15.37
2019-01-14T00:10:48.944Z,17.30
2019-01-14T00:13:19.317Z,19.20
2019-01-14T00:15:49.688Z,16.20
2019-01-14T00:18:20.071Z,18.03
2019-01-14T00:20:50.458Z,22.77
2019-01-14T00:23:20.840Z,17.37
2019-01-14T00:25:51.219Z,28.00
2019-01-14T00:28:21.596Z,12.90
2019-01-14T00:30:51.968Z,17.60
2019-01-14T00:33:22.357Z,18.80
2019-01-14T00:35:53.402Z,18.67
2019-01-14T00:38:23.852Z,16.70
2019-01-14T00:40:54.237Z,16.20
2019-01-14T00:43:24.603Z,14.27
2019-01-14T00:45:55.001Z,12.67
2019-01-14T00:48:25.732Z,16.27
2019-01-14T00:50:56.105Z,9.93
2019-01-14T00:53:26.467Z,11.97
2019-01-14T00:55:56.849Z,14.70
2019-01-14T00:58:27.220Z,10.10
2019-01-14T01:00:57.603Z,12.90
2019-01-14T01:03:28.060Z,10.83
2019-01-14T01:05:58.455Z,10.80
2019-01-14T01:08:28.834Z,18.23
2019-01-14T01:10:59.646Z,11.50
2019-01-14T01:13:30.022Z,9.80
2019-01-14T01:16:00.672Z,9.67
2019-01-14T01:18:31.052Z,16.23
2019-01-14T01:21:01.709Z,19.17
2019-01-14T01:23:32.083Z,19.33
2019-01-14T01:26:02.468Z,18.07
2019-01-14T01:28:32.873Z,16.93
2019-01-14T01:31:03.248Z,17.03
2019-01-14T01:33:33.641Z,20.83
2019-01-14T01:36:04.010Z,19.07
2019-01-14T01:38:34.396Z,17.43
2019-01-14T01:41:04.777Z,14.60
2019-01-14T01:43:35.146Z,20.27
2019-01-14T01:46:05.541Z,18.87
2019-01-14T01:48:35.908Z,23.50
2019-01-14T01:51:06.308Z,17.80
2019-01-14T01:53:36.684Z,17.60
2019-01-14T01:56:07.109Z,26.93
2019-01-14T01:58:37.807Z,17.30
2019-01-14T02:01:08.232Z,19.80
2019-01-14T02:03:38.613Z,16.23
2019-01-14T02:06:08.981Z,15.97
2019-01-14T02:08:39.359Z,15.33
2019-01-14T02:11:09.731Z,15.63
2019-01-14T02:13:40.111Z,20.30
2019-01-14T02:16:10.502Z,13.40
2019-01-14T02:18:40.872Z,22.67
2019-01-14T02:21:11.266Z,16.00
2019-01-14T02:23:41.631Z,16.67
2019-01-14T02:26:12.008Z,20.80
2019-01-14T02:28:42.406Z,14.40
2019-01-14T02:31:12.778Z,27.70
2019-01-14T02:33:43.224Z,23.43
2019-01-14T02:36:13.880Z,22.93
2019-01-14T02:38:45.271Z,19.37
2019-01-14T02:41:15.639Z,19.33
2019-01-14T02:43:46.014Z,19.47
2019-01-14T02:46:16.416Z,19.67
2019-01-14T02:48:47.089Z,22.23
2019-01-14T02:51:17.466Z,16.93
2019-01-14T02:53:48.141Z,15.70
2019-01-14T02:56:18.521Z,17.17
2019-01-14T02:58:48.890Z,20.77
2019-01-14T03:01:19.270Z,24.73
2019-01-14T03:03:49.712Z,17.57
2019-01-14T03:06:20.102Z,14.17
2019-01-14T03:08:50.465Z,17.20
2019-01-14T03:11:21.138Z,15.87
2019-01-14T03:13:51.503Z,15.30
2019-01-14T03:16:21.897Z,19.90
2019-01-14T03:18:52.626Z,19.40
2019-01-14T03:21:22.999Z,18.50
2019-01-14T03:23:53.381Z,17.83
2019-01-14T03:26:23.790Z,17.90
2019-01-14T03:28:54.434Z,19.13
2019-01-14T03:31:24.826Z,20.20
2019-01-14T03:33:55.230Z,15.30
2019-01-14T03:36:25.575Z,13.47
2019-01-14T03:38:55.950Z,20.93
2019-01-14T03:41:26.400Z,20.93
2019-01-14T03:43:56.803Z,20.43
2019-01-14T03:46:27.173Z,12.47
2019-01-14T03:48:57.575Z,17.87
2019-01-14T03:51:27.955Z,19.23
2019-01-14T03:53:58.339Z,15.47
2019-01-14T03:56:28.714Z,21.10
2019-01-14T03:58:59.096Z,15.70
2019-01-14T04:01:29.468Z,18.73
2019-01-14T04:03:59.865Z,20.93
2019-01-14T04:06:30.240Z,19.67
2019-01-14T04:09:00.692Z,22.30
2019-01-14T04:11:31.071Z,20.97
2019-01-14T04:14:01.448Z,18.77
2019-01-14T04:16:31.819Z,22.97
2019-01-14T04:19:02.207Z,14.93
2019-01-14T04:21:32.587Z,15.43
2019-01-14T04:24:02.980Z,11.23
2019-01-14T04:26:33.358Z,17.80
2019-01-14T04:29:03.742Z,13.40
2019-01-14T04:31:34.137Z,16.50
2019-01-14T04:34:04.580Z,21.37
2019-01-14T04:36:34.962Z,16.27
2019-01-14T04:39:09.296Z,22.47
2019-01-14T04:41:39.664Z,29.80
2019-01-14T04:44:10.040Z,20.53
2019-01-14T04:46:40.409Z,19.73
2019-01-14T04:49:10.789Z,22.20
2019-01-14T04:51:41.158Z,25.60
2019-01-14T04:54:11.541Z,23.50
2019-01-14T04:56:42.278Z,14.40
2019-01-14T04:59:12.663Z,17.83
2019-01-14T05:01:43.039Z,19.37
2019-01-14T05:04:13.434Z,12.20
2019-01-14T05:06:43.873Z,17.00
2019-01-14T05:09:14.263Z,20.30
2019-01-14T05:11:44.634Z,16.00
2019-01-14T05:14:15.000Z,18.00
2019-01-14T05:16:45.395Z,23.77
2019-01-14T05:19:15.767Z,21.37
2019-01-14T05:21:46.275Z,19.20
2019-01-14T05:24:16.643Z,15.90
2019-01-14T05:26:47.313Z,20.47
2019-01-14T05:29:17.743Z,19.70
2019-01-14T05:31:48.127Z,17.73
2019-01-14T05:34:18.536Z,17.07
2019-01-14T05:36:48.896Z,13.93
2019-01-14T05:39:19.304Z,18.23
2019-01-14T05:41:49.671Z,19.33
2019-01-14T05:44:20.063Z,18.40
2019-01-14T05:46:50.444Z,14.13
2019-01-14T05:49:20.818Z,19.80
2019-01-14T05:51:51.208Z,25.20
2019-01-14T05:54:21.582Z,13.57
2019-01-14T05:56:52.045Z,20.53
2019-01-14T05:59:22.423Z,17.37
2019-01-14T06:01:52.816Z,20.90
2019-01-14T06:04:23.558Z,15.07
2019-01-14T06:06:53.941Z,14.03
2019-01-14T06:09:24.721Z,15.97
2019-01-14T06:11:55.057Z,19.33
2019-01-14T06:14:25.455Z,17.40
2019-01-14T06:16:55.809Z,17.27
2019-01-14T06:19:28.327Z,16.20
2019-01-14T06:21:58.768Z,15.67
2019-01-14T06:24:29.162Z,12.97
2019-01-14T06:26:59.523Z,16.00
2019-01-14T06:29:29.906Z,12.50
2019-01-14T06:32:00.575Z,17.93
2019-01-14T06:34:31.022Z,15.13
2019-01-14T06:37:01.414Z,14.83
2019-01-14T06:39:31.788Z,17.10
2019-01-14T06:42:02.190Z,10.23
2019-01-14T06:44:32.619Z,11.20
2019-01-14T06:47:03.007Z,13.47
2019-01-14T06:49:33.374Z,12.77
2019-01-14T06:52:03.759Z,19.40
2019-01-14T06:54:34.156Z,15.63
2019-01-14T06:57:04.698Z,10.10
2019-01-14T06:59:35.087Z,13.67
2019-01-14T07:02:05.456Z,12.03
2019-01-14T07:04:35.839Z,13.57
2019-01-14T07:07:06.250Z,13.57
2019-01-14T07:09:37.329Z,10.47
2019-01-14T07:12:07.701Z,8.73
2019-01-14T07:14:38.373Z,11.50
2019-01-14T07:17:08.731Z,9.67
2019-01-14T07:19:39.139Z,14.43
2019-01-14T07:22:09.516Z,10.73
2019-01-14T07:24:40.205Z,12.87
2019-01-14T07:27:10.934Z,13.10
2019-01-14T07:29:41.318Z,14.80
2019-01-14T07:32:11.703Z,14.87
2019-01-14T07:34:42.116Z,12.80
2019-01-14T07:37:12.492Z,11.57
2019-01-14T07:39:42.899Z,14.23
2019-01-14T07:42:13.280Z,11.57
2019-01-14T07:44:43.941Z,14.57
2019-01-14T07:47:14.343Z,10.60
2019-01-14T07:49:44.698Z,8.33
2019-01-14T07:52:15.112Z,11.87
2019-01-14T07:54:45.660Z,15.50
2019-01-14T07:57:17.450Z,9.53
2019-01-14T07:59:47.996Z,8.17
2019-01-14T08:02:18.444Z,9.73
2019-01-14T08:04:48.859Z,12.90
2019-01-14T08:07:19.548Z,11.83
2019-01-14T08:09:50.327Z,8.33
2019-01-14T08:12:20.805Z,15.00
2019-01-14T08:14:51.520Z,10.87
2019-01-14T08:17:21.894Z,17.77
2019-01-14T08:19:52.281Z,11.73
2019-01-14T08:22:23.024Z,14.13
2019-01-14T08:24:54.249Z,12.73
2019-01-14T08:27:24.647Z,14.13
2019-01-14T08:29:55.018Z,12.93
2019-01-14T08:32:25.716Z,9.70
2019-01-14T08:34:56.125Z,11.37
2019-01-14T08:37:26.518Z,15.27
2019-01-14T08:39:57.028Z,13.17
2019-01-14T08:42:27.972Z,20.37
2019-01-14T08:44:58.370Z,15.23
2019-01-14T08:47:30.382Z,16.17
2019-01-14T08:50:00.841Z,11.50
2019-01-14T08:52:31.222Z,14.47
2019-01-14T08:55:01.682Z,20.33
2019-01-14T08:57:32.075Z,14.53
2019-01-14T09:00:03.375Z,13.40
2019-01-14T09:02:33.758Z,14.67
2019-01-14T09:05:05.538Z,9.50
2019-01-14T09:07:36.022Z,13.03
2019-01-14T09:10:14.146Z,13.83
2019-01-14T09:12:44.537Z,17.33
2019-01-14T09:15:18.091Z,13.67
2019-01-14T09:17:48.477Z,10.27
2019-01-14T09:20:21.322Z,15.37
2019-01-14T09:22:51.731Z,15.13
2019-01-14T09:25:22.272Z,14.93
2019-01-14T09:27:52.685Z,10.00
2019-01-14T09:30:24.507Z,13.23
2019-01-14T09:32:55.033Z,8.90
2019-01-14T09:35:25.563Z,11.80
2019-01-14T09:37:56.739Z,12.70
2019-01-14T09:40:27.194Z,11.07
2019-01-14T09:42:57.560Z,14.73
2019-01-14T09:45:27.966Z,10.13
2019-01-14T09:47:58.359Z,17.07
2019-01-14T09:50:28.775Z,13.17
2019-01-14T09:52:59.215Z,14.33
2019-01-14T09:55:29.603Z,18.70
2019-01-14T09:57:59.987Z,8.07
2019-01-14T10:00:30.635Z,12.20
2019-01-14T10:03:01.138Z,10.53
2019-01-14T10:05:31.852Z,10.00
2019-01-14T10:08:02.203Z,9.80
2019-01-14T10:10:32.593Z,8.53
2019-01-14T10:13:03.655Z,13.27
2019-01-14T10:15:34.011Z,6.70
2019-01-14T10:18:04.450Z,10.20
2019-01-14T10:20:34.821Z,11.23
2019-01-14T10:23:05.215Z,8.43
2019-01-14T10:25:35.992Z,14.37
2019-01-14T10:28:06.434Z,12.63
2019-01-14T10:30:36.956Z,10.97
2019-01-14T10:33:08.125Z,7.83
2019-01-14T10:35:38.538Z,13.70
2019-01-14T10:38:08.928Z,11.43
2019-01-14T10:40:39.353Z,12.53
2019-01-14T10:43:09.727Z,11.70
2019-01-14T10:45:40.101Z,9.97
2019-01-14T10:48:10.563Z,10.30
2019-01-14T10:50:40.984Z,9.33
2019-01-14T10:53:11.421Z,14.90
2019-01-14T10:55:41.792Z,12.93
2019-01-14T10:58:12.191Z,15.43
2019-01-14T11:00:42.659Z,14.47
2019-01-14T11:03:13.050Z,12.47
2019-01-14T11:05:43.425Z,12.17
2019-01-14T11:08:13.810Z,10.00
2019-01-14T11:10:44.183Z,14.30
2019-01-14T11:13:14.656Z,8.67
2019-01-14T11:15:45.053Z,12.47
2019-01-14T11:18:15.418Z,9.53
2019-01-14T11:20:45.802Z,8.47
2019-01-14T11:23:16.207Z,11.50
2019-01-14T11:25:46.686Z,10.20
2019-01-14T11:28:17.125Z,8.13
2019-01-14T11:30:47.503Z,7.43
2019-01-14T11:33:17.873Z,7.53
2019-01-14T11:35:48.278Z,12.63
2019-01-14T11:38:46.386Z,10.97
2019-01-14T11:41:17.218Z,11.23
2019-01-14T11:43:47.538Z,9.60
2019-01-14T11:46:18.222Z,9.30
2019-01-14T11:48:48.614Z,13.83
2019-01-14T11:51:19.064Z,10.10
2019-01-14T11:53:49.502Z,12.70
2019-01-14T11:56:20.135Z,8.67
2019-01-14T11:58:50.527Z,16.53
2019-01-14T12:01:20.929Z,10.20
2019-01-14T12:03:51.323Z,14.17
2019-01-14T12:06:21.882Z,12.37
2019-01-14T12:08:52.279Z,11.80
2019-01-14T12:11:22.912Z,12.30
2019-01-14T12:13:53.340Z,13.70
2019-01-14T12:16:23.703Z,9.70
2019-01-14T12:18:54.173Z,10.60
2019-01-14T12:21:24.589Z,11.80
2019-01-14T12:23:54.995Z,12.03
2019-01-14T12:26:25.928Z,14.37
2019-01-14T12:28:56.315Z,11.40
2019-01-14T12:31:26.716Z,12.00
2019-01-14T12:33:57.094Z,11.10
2019-01-14T12:36:27.474Z,9.90
2019-01-14T12:38:57.859Z,7.57
2019-01-14T12:41:28.266Z,12.30
2019-01-14T12:43:58.736Z,12.53
2019-01-14T12:46:29.090Z,6.10
2019-01-14T12:48:59.508Z,14.83
2019-01-14T12:51:29.910Z,17.90
2019-01-14T12:54:00.334Z,18.67
2019-01-14T12:56:30.955Z,13.07
2019-01-14T12:59:01.358Z,7.83
2019-01-14T13:01:31.720Z,8.63
2019-01-14T13:04:02.116Z,6.70
2019-01-14T13:06:32.506Z,8.13
2019-01-14T13:09:04.387Z,8.53
2019-01-14T13:11:34.772Z,9.97
2019-01-14T13:14:05.379Z,7.60
2019-01-14T13:16:35.799Z,11.10
2019-01-14T13:19:06.206Z,8.87
2019-01-14T13:21:36.617Z,10.37
2019-01-14T13:24:07.291Z,12.30
2019-01-14T13:26:37.671Z,9.83
2019-01-14T13:29:08.200Z,8.63
2019-01-14T13:31:38.577Z,9.97
2019-01-14T13:34:09.014Z,12.47
2019-01-14T13:36:39.396Z,14.20
2019-01-14T13:39:10.672Z,11.17
2019-01-14T13:41:41.046Z,10.97
2019-01-14T13:44:11.454Z,10.03
2019-01-14T13:46:41.804Z,9.33
2019-01-14T13:49:12.224Z,8.53
2019-01-14T13:51:46.850Z,7.20
2019-01-14T13:54:15.028Z,10.87
2019-01-14T13:56:46.475Z,5.80
2019-01-14T13:59:16.863Z,9.97
2019-01-14T14:01:47.425Z,13.57
2019-01-14T14:04:17.811Z,11.13
2019-01-14T14:06:48.205Z,10.63
2019-01-14T14:09:18.577Z,9.50
2019-01-14T14:11:48.991Z,13.93
2019-01-14T14:14:19.547Z,11.07
2019-01-14T14:16:49.923Z,13.90
2019-01-14T14:19:20.333Z,13.50
2019-01-14T14:21:50.710Z,13.53
2019-01-14T14:24:21.115Z,14.47
2019-01-14T14:26:51.492Z,16.70
2019-01-14T14:29:21.914Z,12.30
2019-01-14T14:31:52.483Z,11.83
2019-01-14T14:34:22.866Z,10.03
2019-01-14T14:36:53.331Z,7.67
2019-01-14T14:39:23.739Z,11.93
2019-01-14T14:41:54.374Z,12.23
2019-01-14T14:44:24.756Z,13.33
2019-01-14T14:46:55.742Z,12.03
2019-01-14T14:49:26.103Z,9.80
2019-01-14T14:51:56.559Z,12.63
2019-01-14T14:54:26.965Z,11.60
2019-01-14T14:56:57.333Z,11.20
2019-01-14T14:59:29.466Z,12.67
2019-01-14T15:02:01.001Z,11.70
2019-01-14T15:04:31.358Z,10.57
2019-01-14T15:07:01.737Z,14.53
2019-01-14T15:09:32.293Z,14.77
2019-01-14T15:12:02.768Z,16.47
2019-01-14T15:14:33.192Z,12.77
2019-01-14T15:17:03.581Z,8.13
2019-01-14T15:19:33.995Z,12.60
2019-01-14T15:22:04.384Z,19.63
2019-01-14T15:24:34.779Z,18.03
2019-01-14T15:27:05.231Z,11.17
2019-01-14T15:29:35.624Z,16.80
2019-01-14T15:32:07.882Z,15.00
2019-01-14T15:34:38.231Z,9.23
2019-01-14T15:37:08.654Z,13.63
2019-01-14T15:39:39.053Z,23.90
2019-01-14T15:42:09.438Z,17.70
2019-01-14T15:44:39.840Z,13.57
2019-01-14T15:47:10.227Z,18.90
2019-01-14T15:49:40.610Z,16.80
2019-01-14T15:52:11.020Z,19.70
2019-01-14T15:54:41.391Z,21.62
2019-01-14T15:57:12.085Z,18.93
2019-01-14T15:59:42.481Z,22.70
2019-01-14T16:02:12.868Z,14.23
2019-01-14T16:04:43.241Z,23.03
2019-01-14T16:07:14.921Z,15.30
2019-01-14T16:09:45.281Z,17.40
2019-01-14T16:12:15.709Z,18.40
2019-01-14T16:14:46.110Z,20.97
2019-01-14T16:17:16.577Z,18.60
2019-01-14T16:28:26.640Z,24.67
2019-01-14T16:30:57.433Z,22.57
2019-01-14T16:33:27.829Z,21.73
2019-01-14T16:35:58.307Z,17.83
2019-01-14T16:38:28.760Z,25.23
2019-01-14T16:40:59.348Z,18.70
2019-01-14T16:43:30.020Z,25.43
2019-01-14T16:46:00.429Z,18.23
2019-01-14T16:48:30.805Z,16.77
2019-01-14T16:51:01.219Z,19.87
2019-01-14T16:53:32.732Z,19.13
2019-01-14T16:56:03.113Z,25.87
2019-01-14T16:58:33.506Z,20.60
2019-01-14T17:01:03.968Z,21.27
2019-01-14T17:03:34.451Z,20.80
2019-01-14T17:06:04.964Z,19.27
2019-01-14T17:08:40.808Z,20.73
2019-01-14T17:11:12.910Z,17.90
2019-01-14T17:13:43.323Z,31.43
2019-01-14T17:16:13.694Z,17.57
2019-01-14T17:18:44.216Z,23.10
2019-01-14T17:21:14.672Z,23.73
2019-01-14T17:23:45.138Z,31.77
2019-01-14T17:26:16.038Z,21.80
2019-01-14T17:28:46.451Z,21.63
2019-01-14T17:31:16.811Z,15.83
2019-01-14T17:33:47.207Z,16.13
2019-01-14T17:36:17.586Z,15.33
2019-01-14T17:38:48.170Z,15.40
2019-01-14T17:41:20.188Z,17.47
2019-01-14T17:43:50.700Z,19.60
2019-01-14T17:46:21.164Z,19.77
2019-01-14T17:48:53.195Z,28.33
2019-01-14T17:51:23.651Z,21.40
2019-01-14T17:53:54.092Z,29.97
2019-01-14T17:56:25.326Z,21.07
2019-01-14T17:58:55.721Z,19.90
2019-01-14T18:01:26.102Z,22.57
2019-01-14T18:03:56.523Z,16.23
2019-01-14T18:06:27.402Z,24.07
2019-01-14T18:08:57.798Z,14.40
2019-01-14T18:11:28.171Z,23.47
2019-01-14T18:13:58.664Z,17.70
2019-01-14T18:16:29.059Z,22.40
2019-01-14T18:18:59.468Z,23.10
2019-01-14T18:21:29.850Z,19.50
2019-01-14T18:24:00.277Z,17.30
2019-01-14T18:26:30.649Z,26.43
2019-01-14T18:29:01.052Z,16.60
2019-01-14T18:31:31.507Z,19.00
2019-01-14T18:34:01.903Z,18.13
2019-01-14T18:36:32.295Z,18.43
2019-01-14T18:39:02.678Z,20.00
2019-01-14T18:41:33.087Z,22.63
2019-01-14T18:44:03.458Z,21.77
2019-01-14T18:46:33.861Z,23.13
2019-01-14T18:49:04.236Z,22.77
2019-01-14T18:51:34.633Z,32.77
2019-01-14T18:54:05.363Z,16.17
2019-01-14T18:56:35.765Z,18.63
2019-01-14T18:59:06.152Z,17.23
2019-01-14T19:01:36.861Z,17.97
2019-01-14T19:04:07.586Z,22.40
2019-01-14T19:06:38.000Z,17.87
2019-01-14T19:09:09.271Z,25.10
2019-01-14T19:11:39.660Z,21.43
2019-01-14T19:14:10.430Z,14.17
2019-01-14T19:16:40.803Z,19.90
2019-01-14T19:19:11.485Z,15.23
2019-01-14T19:21:41.941Z,26.23
2019-01-14T19:24:12.335Z,18.03
2019-01-14T19:26:42.732Z,26.27
2019-01-14T19:29:13.128Z,22.93
2019-01-14T19:31:43.533Z,28.10
2019-01-14T19:34:13.924Z,20.07
2019-01-14T19:36:44.295Z,22.07
2019-01-14T19:39:15.037Z,21.97
2019-01-14T19:41:45.430Z,16.73
2019-01-14T19:44:16.174Z,17.90
2019-01-14T19:46:46.917Z,15.77
2019-01-14T19:49:17.307Z,18.50
2019-01-14T19:51:47.687Z,17.63
2019-01-14T19:54:18.072Z,23.73
2019-01-14T19:56:48.483Z,24.77
2019-01-14T19:59:18.881Z,16.30
2019-01-14T20:01:49.334Z,16.57
2019-01-14T20:04:19.746Z,19.27
2019-01-14T20:06:50.449Z,30.97
2019-01-14T20:09:20.832Z,22.43
2019-01-14T20:11:51.231Z,17.57
2019-01-14T20:14:21.626Z,23.20
2019-01-14T20:16:53.687Z,29.07
2019-01-14T20:19:24.061Z,20.37
2019-01-14T20:21:54.739Z,18.57
2019-01-14T20:24:25.115Z,20.60
2019-01-14T20:26:55.515Z,21.73
2019-01-14T20:29:25.898Z,17.53
2019-01-14T20:31:56.652Z,18.30
2019-01-14T20:34:27.070Z,24.27
2019-01-14T20:36:57.462Z,17.00
2019-01-14T20:39:27.861Z,23.80
2019-01-14T20:41:58.267Z,27.00
2019-01-14T20:44:28.647Z,28.40
2019-01-14T20:46:59.031Z,26.70
2019-01-14T20:49:29.412Z,26.60
2019-01-14T20:51:59.808Z,21.43
2019-01-14T20:54:30.223Z,20.93
2019-01-14T20:57:00.619Z,14.90
2019-01-14T20:59:34.577Z,17.40
2019-01-14T21:02:03.149Z,26.03
2019-01-14T21:04:33.582Z,27.30
2019-01-14T21:07:05.813Z,17.67
2019-01-14T21:09:36.174Z,26.50
2019-01-14T21:12:06.562Z,22.27
2019-01-14T21:14:36.934Z,16.07
2019-01-14T21:17:07.354Z,23.87
2019-01-14T21:19:37.739Z,17.13
2019-01-14T21:22:08.132Z,20.27
2019-01-14T21:24:38.508Z,20.13
2019-01-14T21:27:08.891Z,23.43
2019-01-14T21:29:39.287Z,23.23
2019-01-14T21:32:09.735Z,26.03
2019-01-14T21:34:40.127Z,22.03
2019-01-14T21:37:10.498Z,24.77
2019-01-14T21:39:40.976Z,23.77
2019-01-14T21:42:11.365Z,25.53
2019-01-14T21:44:42.133Z,16.63
2019-01-14T21:47:12.510Z,25.20
2019-01-14T21:49:42.929Z,25.10
2019-01-14T21:52:13.317Z,28.20
2019-01-14T21:54:43.773Z,25.00
2019-01-14T21:57:14.154Z,18.07
2019-01-14T21:59:44.549Z,28.73
2019-01-14T22:02:14.929Z,32.40
2019-01-14T22:04:45.299Z,18.53
2019-01-14T22:07:15.687Z,22.13
2019-01-14T22:09:46.065Z,25.37
2019-01-14T22:12:16.458Z,29.23
2019-01-14T22:14:46.899Z,22.57
2019-01-14T22:17:17.279Z,26.47
2019-01-14T22:19:47.738Z,24.03
2019-01-14T22:22:18.116Z,20.93
2019-01-14T22:24:48.509Z,32.70
2019-01-14T22:27:18.895Z,33.00
2019-01-14T22:29:49.306Z,27.30
2019-01-14T22:32:20.118Z,27.83
2019-01-14T22:34:50.606Z,26.90
2019-01-14T22:37:20.984Z,22.90
2019-01-14T22:39:51.378Z,27.10
2019-01-14T22:42:21.742Z,26.17
2019-01-14T22:44:52.222Z,24.10
2019-01-14T22:47:22.595Z,23.10
2019-01-14T22:49:53.294Z,21.40
2019-01-14T22:52:23.659Z,25.40
2019-01-14T22:54:54.054Z,31.60
2019-01-14T22:57:24.457Z,36.17
2019-01-14T22:59:54.830Z,24.90
2019-01-14T23:02:25.502Z,25.50
2019-01-14T23:04:55.876Z,29.50
2019-01-14T23:07:26.274Z,28.47
2019-01-14T23:09:56.648Z,24.70
2019-01-14T23:12:27.053Z,20.50
2019-01-14T23:14:57.506Z,20.67
2019-01-14T23:17:27.890Z,19.77
2019-01-14T23:19:58.288Z,23.00
2019-01-14T23:22:28.668Z,27.63
2019-01-14T23:24:59.096Z,27.87
2019-01-14T23:27:38.862Z,29.30
2019-01-14T23:30:11.855Z,33.83
2019-01-14T23:32:42.239Z,32.83
2019-01-14T23:35:12.627Z,27.77
2019-01-14T23:37:44.550Z,30.37
2019-01-14T23:40:15.159Z,22.93
2019-01-14T23:42:45.546Z,32.80
2019-01-14T23:45:15.952Z,26.87
2019-01-14T23:47:46.340Z,27.70
2019-01-14T23:50:17.037Z,29.37
2019-01-14T23:52:47.415Z,20.07
2019-01-14T23:55:17.885Z,30.17
2019-01-14T23:57:48.253Z,38.27
